Time;durP1;ratioP1;P1;durP2;ratioP2;P2;SDS_P1;SDS_P2;PMS_P1;PMS_P2;Temp;Humidity;BMP_temperature;BMP_pressure;BME280_temperature;BME280_humidity;BME280_pressure;Samples;Min_cycle;Max_cycle;Signal;HPM_P1;HPM_P2
2022/07/18 00:00:00;;;;;;;6.30;2.30;;;;;;;;;;5072332;28;20501;-66
2022/07/18 00:02:26;;;;;;;2.88;2.30;;;;;;;;;;5071874;28;20058;-66
2022/07/18 00:04:53;;;;;;;4.57;2.05;;;;;;;;;;5072088;28;20433;-66
2022/07/18 00:07:19;;;;;;;5.38;2.80;;;;;;;;;;5072217;28;20082;-66
2022/07/18 00:09:45;;;;;;;3.08;2.30;;;;;;;;;;5072016;28;20040;-66
2022/07/18 00:12:11;;;;;;;3.67;2.58;;;;;;;;;;5072320;28;20016;-66
2022/07/18 00:14:38;;;;;;;5.20;2.45;;;;;;;;;;5075018;28;20025;-66
2022/07/18 00:17:05;;;;;;;5.13;2.33;;;;;;;;;;5076148;28;20548;-66
2022/07/18 00:19:32;;;;;;;4.72;2.17;;;;;;;;;;5076186;28;20032;-66
2022/07/18 00:21:58;;;;;;;3.75;2.60;;;;;;;;;;5092007;28;20438;-67
2022/07/18 00:24:24;;;;;;;5.07;2.30;;;;;;;;;;5076180;28;20028;-67
2022/07/18 00:26:50;;;;;;;4.75;2.28;;;;;;;;;;5075916;28;20486;-67
2022/07/18 00:29:16;;;;;;;3.33;2.50;;;;;;;;;;5076084;28;20462;-66
2022/07/18 00:31:42;;;;;;;3.15;2.67;;;;;;;;;;5075762;28;20478;-67
2022/07/18 00:34:08;;;;;;;6.78;2.40;;;;;;;;;;5076133;28;20028;-70
2022/07/18 00:36:34;;;;;;;5.70;2.50;;;;;;;;;;5075841;28;20039;-68
2022/07/18 00:39:01;;;;;;;7.95;3.33;;;;;;;;;;5075818;28;20037;-68
2022/07/18 00:41:27;;;;;;;4.75;2.40;;;;;;;;;;5076079;28;20099;-68
2022/07/18 00:43:53;;;;;;;5.05;2.67;;;;;;;;;;5075656;28;20032;-68
2022/07/18 00:46:23;;;;;;;5.53;2.38;;;;;;;;;;5075534;28;20123;-68
2022/07/18 00:48:49;;;;;;;3.95;2.60;;;;;;;;;;5075640;28;20029;-68
2022/07/18 00:51:16;;;;;;;3.28;2.65;;;;;;;;;;5075806;28;20028;-68
2022/07/18 00:53:43;;;;;;;5.65;2.67;;;;;;;;;;5075646;28;20021;-67
2022/07/18 00:56:09;;;;;;;5.47;2.97;;;;;;;;;;5075632;28;20397;-67
2022/07/18 00:58:36;;;;;;;3.35;2.55;;;;;;;;;;5075605;28;20035;-68
2022/07/18 01:03:47;;;;;;;8.15;2.80;;;;;;;;;;5090974;28;20037;-68
2022/07/18 01:06:13;;;;;;;5.85;2.78;;;;;;;;;;5075499;28;20478;-68
2022/07/18 01:08:42;;;;;;;5.70;2.83;;;;;;;;;;5075112;28;20024;-67
2022/07/18 01:11:08;;;;;;;6.72;2.70;;;;;;;;;;5075366;28;20493;-68
2022/07/18 01:13:34;;;;;;;8.00;3.00;;;;;;;;;;5075389;28;20024;-68
2022/07/18 01:16:00;;;;;;;8.73;2.88;;;;;;;;;;5074941;28;20027;-68
2022/07/18 01:18:27;;;;;;;5.05;2.58;;;;;;;;;;5075118;28;20396;-68
2022/07/18 01:20:53;;;;;;;6.22;3.08;;;;;;;;;;5075190;28;20028;-69
2022/07/18 01:23:19;;;;;;;4.60;3.00;;;;;;;;;;5075049;28;20048;-69
2022/07/18 01:25:45;;;;;;;6.05;3.08;;;;;;;;;;5074425;28;20039;-68
2022/07/18 01:28:11;;;;;;;5.10;2.90;;;;;;;;;;5090360;28;20076;-68
2022/07/18 01:30:37;;;;;;;7.88;3.53;;;;;;;;;;5074636;28;20039;-69
2022/07/18 01:33:04;;;;;;;7.13;2.85;;;;;;;;;;5074837;28;20024;-68
2022/07/18 01:35:30;;;;;;;5.28;2.60;;;;;;;;;;5075111;28;20039;-68
2022/07/18 01:37:58;;;;;;;5.93;3.08;;;;;;;;;;5074775;28;20040;-68
2022/07/18 01:40:24;;;;;;;6.80;3.10;;;;;;;;;;5074875;28;20501;-68
2022/07/18 01:42:51;;;;;;;3.85;2.88;;;;;;;;;;5074442;28;20025;-69
2022/07/18 01:45:17;;;;;;;8.35;4.38;;;;;;;;;;5074656;28;20032;-69
2022/07/18 01:47:44;;;;;;;5.45;3.10;;;;;;;;;;5074789;28;20508;-69
2022/07/18 01:50:11;;;;;;;6.93;2.83;;;;;;;;;;5073280;28;20413;-69
2022/07/18 01:52:37;;;;;;;4.18;3.15;;;;;;;;;;5074573;28;20478;-69
2022/07/18 01:55:04;;;;;;;5.20;2.70;;;;;;;;;;5074553;28;20371;-68
2022/07/18 01:57:30;;;;;;;4.20;3.22;;;;;;;;;;5074261;28;20028;-69
2022/07/18 01:59:56;;;;;;;5.47;2.90;;;;;;;;;;5074510;28;20052;-69
2022/07/18 02:02:22;;;;;;;8.30;3.83;;;;;;;;;;5074486;28;20029;-69
2022/07/18 02:05:01;;;;;;;7.38;3.08;;;;;;;;;;5074122;28;20025;-69
2022/07/18 02:07:38;;;;;;;6.18;3.08;;;;;;;;;;5074434;28;20038;-69
2022/07/18 02:10:17;;;;;;;3.75;2.92;;;;;;;;;;5074182;28;20474;-69
2022/07/18 02:12:44;;;;;;;4.55;2.90;;;;;;;;;;5073955;28;20036;-69
2022/07/18 02:15:11;;;;;;;6.07;3.08;;;;;;;;;;5073868;28;20545;-69
2022/07/18 02:17:37;;;;;;;4.80;3.00;;;;;;;;;;5074176;28;20024;-68
2022/07/18 02:20:08;;;;;;;10.82;3.35;;;;;;;;;;5073850;28;20628;-68
2022/07/18 02:22:34;;;;;;;8.77;3.50;;;;;;;;;;5072713;28;20120;-67
2022/07/18 02:25:00;;;;;;;6.93;3.30;;;;;;;;;;5073923;28;20037;-67
2022/07/18 02:27:26;;;;;;;5.00;3.22;;;;;;;;;;5073571;28;20044;-67
2022/07/18 02:29:52;;;;;;;7.20;3.42;;;;;;;;;;5073879;28;20025;-67
2022/07/18 02:32:19;;;;;;;5.10;3.10;;;;;;;;;;5073821;28;20089;-67
2022/07/18 02:34:45;;;;;;;5.18;3.63;;;;;;;;;;5073719;28;20521;-67
2022/07/18 02:37:11;;;;;;;5.40;3.25;;;;;;;;;;5073563;28;20039;-67
2022/07/18 02:39:37;;;;;;;5.72;3.33;;;;;;;;;;5073781;28;20043;-67
2022/07/18 02:42:04;;;;;;;6.75;3.30;;;;;;;;;;5073192;28;20066;-67
2022/07/18 02:44:31;;;;;;;8.95;3.28;;;;;;;;;;5073650;28;20109;-67
2022/07/18 02:46:57;;;;;;;9.38;3.47;;;;;;;;;;5073579;28;20505;-68
2022/07/18 02:49:27;;;;;;;9.27;3.53;;;;;;;;;;5073534;28;20078;-68
2022/07/18 02:51:57;;;;;;;6.93;3.33;;;;;;;;;;5073210;28;20027;-68
2022/07/18 02:54:24;;;;;;;5.75;2.90;;;;;;;;;;5073523;28;20043;-67
2022/07/18 02:56:50;;;;;;;6.78;3.42;;;;;;;;;;5073065;28;20107;-67
2022/07/18 02:59:16;;;;;;;9.13;3.08;;;;;;;;;;5073246;28;20029;-66
2022/07/18 03:01:42;;;;;;;4.55;3.25;;;;;;;;;;5073315;28;20037;-66
2022/07/18 03:04:08;;;;;;;6.47;3.08;;;;;;;;;;5071989;28;20037;-68
2022/07/18 03:06:34;;;;;;;4.25;3.00;;;;;;;;;;5073120;28;20024;-68
2022/07/18 03:09:00;;;;;;;5.78;3.20;;;;;;;;;;5072944;28;20024;-68
2022/07/18 03:11:26;;;;;;;5.93;3.53;;;;;;;;;;5072753;28;20085;-71
2022/07/18 03:13:53;;;;;;;5.93;3.00;;;;;;;;;;5072978;28;20462;-67
2022/07/18 03:16:19;;;;;;;4.93;3.10;;;;;;;;;;5072931;28;20046;-68
2022/07/18 03:18:45;;;;;;;6.03;2.90;;;;;;;;;;5072851;28;20027;-67
2022/07/18 03:21:11;;;;;;;7.90;3.00;;;;;;;;;;5072786;28;20371;-67
2022/07/18 03:23:37;;;;;;;4.88;3.00;;;;;;;;;;5072974;28;20028;-67
2022/07/18 03:26:03;;;;;;;3.58;2.85;;;;;;;;;;5072482;28;20024;-68
2022/07/18 03:28:29;;;;;;;4.53;3.03;;;;;;;;;;5072687;28;20040;-68
2022/07/18 03:30:58;;;;;;;5.60;2.70;;;;;;;;;;5072725;28;20070;-68
2022/07/18 03:33:25;;;;;;;5.63;2.90;;;;;;;;;;5072815;28;20029;-67
2022/07/18 03:35:51;;;;;;;7.32;3.10;;;;;;;;;;5072579;28;20531;-67
2022/07/18 03:38:17;;;;;;;8.30;2.88;;;;;;;;;;5072626;28;20020;-68
2022/07/18 03:40:43;;;;;;;6.40;3.13;;;;;;;;;;5072321;28;20032;-67
2022/07/18 03:43:09;;;;;;;6.30;3.15;;;;;;;;;;5072401;28;20032;-70
2022/07/18 03:45:36;;;;;;;6.60;3.17;;;;;;;;;;5072648;28;20033;-70
2022/07/18 03:48:02;;;;;;;4.88;3.30;;;;;;;;;;5071906;28;20470;-69
2022/07/18 03:50:28;;;;;;;6.75;3.90;;;;;;;;;;5072392;28;20041;-69
2022/07/18 03:52:55;;;;;;;6.03;3.92;;;;;;;;;;5072403;28;20032;-69
2022/07/18 03:55:21;;;;;;;4.38;3.47;;;;;;;;;;5072016;28;20078;-69
2022/07/18 03:57:48;;;;;;;6.63;4.10;;;;;;;;;;5072426;28;20024;-70
2022/07/18 04:00:14;;;;;;;8.77;3.88;;;;;;;;;;5072146;28;20036;-70
2022/07/18 04:02:44;;;;;;;4.72;3.95;;;;;;;;;;5072401;28;20043;-70
2022/07/18 04:05:10;;;;;;;5.75;3.85;;;;;;;;;;5072107;28;20394;-70
2022/07/18 04:07:36;;;;;;;9.18;4.32;;;;;;;;;;5072089;28;20036;-70
2022/07/18 04:10:04;;;;;;;5.22;3.88;;;;;;;;;;5071997;28;20033;-70
2022/07/18 04:12:30;;;;;;;6.10;4.45;;;;;;;;;;5072354;28;20032;-70
2022/07/18 04:14:57;;;;;;;6.85;4.07;;;;;;;;;;5072374;28;20027;-70
2022/07/18 04:17:23;;;;;;;8.07;4.00;;;;;;;;;;5072169;28;20169;-70
2022/07/18 04:19:49;;;;;;;5.85;4.15;;;;;;;;;;5071960;28;20033;-70
2022/07/18 04:22:15;;;;;;;10.45;4.60;;;;;;;;;;5071807;28;20048;-70
2022/07/18 04:24:41;;;;;;;13.38;4.43;;;;;;;;;;5072197;28;20474;-68
2022/07/18 04:27:07;;;;;;;7.80;3.80;;;;;;;;;;5071599;28;20048;-66
2022/07/18 04:29:35;;;;;;;9.60;4.82;;;;;;;;;;5072046;28;20029;-67
2022/07/18 04:32:02;;;;;;;5.90;4.45;;;;;;;;;;5072125;28;20028;-66
2022/07/18 04:34:28;;;;;;;11.95;4.25;;;;;;;;;;5072089;28;20066;-67
2022/07/18 04:36:54;;;;;;;7.70;4.47;;;;;;;;;;5071758;28;20029;-67
2022/07/18 04:39:20;;;;;;;6.07;4.32;;;;;;;;;;5072111;28;20371;-68
2022/07/18 04:41:47;;;;;;;4.45;3.85;;;;;;;;;;5070377;28;20448;-68
2022/07/18 04:44:13;;;;;;;9.82;4.18;;;;;;;;;;5072069;28;20024;-68
2022/07/18 04:46:39;;;;;;;8.07;4.80;;;;;;;;;;5071898;28;20081;-68
2022/07/18 04:49:06;;;;;;;8.20;4.18;;;;;;;;;;5087363;28;20119;-67
2022/07/18 04:51:32;;;;;;;5.93;4.35;;;;;;;;;;5071726;28;20493;-67
2022/07/18 04:53:58;;;;;;;6.28;4.68;;;;;;;;;;5071706;28;20029;-66
2022/07/18 04:56:24;;;;;;;8.70;4.28;;;;;;;;;;5071921;28;20064;-67
2022/07/18 04:58:51;;;;;;;8.38;4.30;;;;;;;;;;5071899;28;20029;-68
2022/07/18 05:01:17;;;;;;;6.47;4.43;;;;;;;;;;5073579;28;20124;-68
2022/07/18 05:03:43;;;;;;;5.82;4.68;;;;;;;;;;5075656;28;20056;-68
2022/07/18 05:06:09;;;;;;;8.45;4.95;;;;;;;;;;5074955;28;20055;-68
2022/07/18 05:08:35;;;;;;;7.72;4.93;;;;;;;;;;5075294;28;20036;-67
2022/07/18 05:11:01;;;;;;;9.43;4.85;;;;;;;;;;5075346;28;20406;-68
2022/07/18 05:13:27;;;;;;;8.85;5.05;;;;;;;;;;5075230;28;20028;-67
2022/07/18 05:15:53;;;;;;;8.48;4.60;;;;;;;;;;5075358;28;20402;-67
2022/07/18 05:18:20;;;;;;;11.00;4.88;;;;;;;;;;5074998;28;20024;-67
2022/07/18 05:20:46;;;;;;;6.50;4.60;;;;;;;;;;5074692;28;20028;-67
2022/07/18 05:23:15;;;;;;;12.35;4.70;;;;;;;;;;5075009;28;20452;-67
2022/07/18 05:25:41;;;;;;;7.13;4.18;;;;;;;;;;5075187;28;20032;-67
2022/07/18 05:28:07;;;;;;;8.95;4.68;;;;;;;;;;5073426;28;20051;-68
2022/07/18 05:30:33;;;;;;;7.10;4.38;;;;;;;;;;5075079;28;20056;-67
2022/07/18 05:32:59;;;;;;;10.43;5.65;;;;;;;;;;5074903;28;20029;-67
2022/07/18 05:35:25;;;;;;;12.35;4.43;;;;;;;;;;5074721;28;20043;-68
2022/07/18 05:37:51;;;;;;;10.68;5.40;;;;;;;;;;5074873;28;20057;-68
2022/07/18 05:40:18;;;;;;;8.13;4.47;;;;;;;;;;5074817;28;20029;-68
2022/07/18 05:42:45;;;;;;;10.18;4.53;;;;;;;;;;5074866;28;20131;-68
2022/07/18 05:45:11;;;;;;;12.23;4.80;;;;;;;;;;5074594;28;20123;-68
2022/07/18 05:47:38;;;;;;;6.85;4.03;;;;;;;;;;5090404;28;20032;-68
2022/07/18 05:50:04;;;;;;;11.45;4.47;;;;;;;;;;5074223;28;20036;-68
2022/07/18 05:52:31;;;;;;;10.32;4.13;;;;;;;;;;5074479;28;20078;-68
2022/07/18 05:54:57;;;;;;;6.30;4.10;;;;;;;;;;5074557;28;20031;-67
2022/07/18 05:57:23;;;;;;;9.50;4.47;;;;;;;;;;5074537;28;20028;-67
2022/07/18 05:59:49;;;;;;;8.77;3.92;;;;;;;;;;5090258;28;20422;-67
2022/07/18 06:02:15;;;;;;;9.77;4.20;;;;;;;;;;5074275;28;20044;-67
2022/07/18 06:04:41;;;;;;;6.57;4.20;;;;;;;;;;5074048;28;20033;-67
2022/07/18 06:07:07;;;;;;;11.48;4.30;;;;;;;;;;5074258;28;20119;-67
2022/07/18 06:09:34;;;;;;;6.13;4.20;;;;;;;;;;5074340;28;20105;-67
2022/07/18 06:12:00;;;;;;;8.25;3.95;;;;;;;;;;5072527;28;20087;-67
2022/07/18 06:14:31;;;;;;;8.60;4.20;;;;;;;;;;5074083;28;20027;-67
2022/07/18 06:16:58;;;;;;;6.38;4.00;;;;;;;;;;5074054;28;20070;-67
2022/07/18 06:19:25;;;;;;;11.50;4.07;;;;;;;;;;5089152;28;20094;-69
2022/07/18 06:21:51;;;;;;;8.25;4.05;;;;;;;;;;5072671;28;20032;-69
2022/07/18 06:24:17;;;;;;;5.32;3.85;;;;;;;;;;5073952;28;20032;-67
2022/07/18 06:26:43;;;;;;;6.25;3.33;;;;;;;;;;5074013;28;20120;-67
2022/07/18 06:29:10;;;;;;;9.80;3.67;;;;;;;;;;5073451;28;20068;-67
2022/07/18 06:31:36;;;;;;;5.63;2.95;;;;;;;;;;5073862;28;20067;-67
2022/07/18 06:34:02;;;;;;;5.22;3.38;;;;;;;;;;5073443;28;20436;-68
2022/07/18 06:36:29;;;;;;;11.32;3.90;;;;;;;;;;5073863;28;20451;-68
2022/07/18 06:38:55;;;;;;;9.15;3.40;;;;;;;;;;5073799;28;20086;-67
2022/07/18 06:41:21;;;;;;;6.35;2.80;;;;;;;;;;5089235;28;20098;-68
2022/07/18 06:43:47;;;;;;;7.65;3.40;;;;;;;;;;5073617;28;20025;-68
2022/07/18 06:46:13;;;;;;;4.70;3.17;;;;;;;;;;5073545;28;20020;-68
2022/07/18 06:48:39;;;;;;;4.88;2.55;;;;;;;;;;5073372;28;20039;-68
2022/07/18 06:51:06;;;;;;;6.95;3.35;;;;;;;;;;5073285;28;20450;-68
2022/07/18 06:53:33;;;;;;;6.25;2.80;;;;;;;;;;5073461;28;20024;-68
2022/07/18 06:56:02;;;;;;;7.18;3.08;;;;;;;;;;5073360;28;20043;-68
2022/07/18 06:58:30;;;;;;;4.55;2.72;;;;;;;;;;5073390;28;20036;-68
2022/07/18 07:00:57;;;;;;;5.63;2.90;;;;;;;;;;5073363;28;20032;-67
2022/07/18 07:03:23;;;;;;;7.65;3.05;;;;;;;;;;5072899;28;20040;-67
2022/07/18 07:05:49;;;;;;;11.00;2.80;;;;;;;;;;5073196;28;20531;-66
2022/07/18 07:08:15;;;;;;;7.82;3.65;;;;;;;;;;5073044;28;20037;-67
2022/07/18 07:10:41;;;;;;;5.30;2.47;;;;;;;;;;5073044;28;20478;-67
2022/07/18 07:13:08;;;;;;;8.07;2.97;;;;;;;;;;5072795;28;20052;-66
2022/07/18 07:15:34;;;;;;;6.05;2.65;;;;;;;;;;5072301;28;20035;-66
2022/07/18 07:18:00;;;;;;;7.20;2.58;;;;;;;;;;5071892;28;20032;-66
2022/07/18 07:20:26;;;;;;;4.75;2.55;;;;;;;;;;5072880;28;20116;-66
2022/07/18 07:22:53;;;;;;;4.35;2.65;;;;;;;;;;5072417;28;20127;-66
2022/07/18 07:25:20;;;;;;;4.30;2.78;;;;;;;;;;5072637;28;20032;-66
2022/07/18 07:27:47;;;;;;;10.25;2.92;;;;;;;;;;5072223;28;20118;-66
2022/07/18 07:30:14;;;;;;;6.35;2.80;;;;;;;;;;5072253;28;20032;-66
2022/07/18 07:32:42;;;;;;;4.70;2.78;;;;;;;;;;5072778;28;20431;-66
2022/07/18 07:35:11;;;;;;;6.57;2.95;;;;;;;;;;5073228;28;20056;-66
2022/07/18 07:37:38;;;;;;;4.22;2.78;;;;;;;;;;5073280;28;20081;-66
2022/07/18 07:40:04;;;;;;;4.80;2.95;;;;;;;;;;5072401;28;20046;-66
2022/07/18 07:42:30;;;;;;;12.45;3.20;;;;;;;;;;5072970;28;20068;-66
2022/07/18 07:44:57;;;;;;;8.65;3.00;;;;;;;;;;5073095;28;20449;-66
2022/07/18 07:47:23;;;;;;;4.47;3.00;;;;;;;;;;5072666;28;20116;-66
2022/07/18 07:49:49;;;;;;;7.75;2.58;;;;;;;;;;5072857;28;20021;-66
2022/07/18 07:52:17;;;;;;;7.93;2.65;;;;;;;;;;5072996;28;20475;-66
2022/07/18 07:54:46;;;;;;;8.60;2.47;;;;;;;;;;5072085;28;20024;-66
2022/07/18 07:57:13;;;;;;;10.93;2.40;;;;;;;;;;5066769;28;20021;-66
2022/07/18 07:59:39;;;;;;;9.80;3.03;;;;;;;;;;5071863;28;20035;-66
2022/07/18 08:02:05;;;;;;;8.52;2.80;;;;;;;;;;5072732;28;20056;-66
2022/07/18 08:04:31;;;;;;;6.90;2.50;;;;;;;;;;5071953;28;20032;-66
2022/07/18 08:06:57;;;;;;;7.05;2.75;;;;;;;;;;5072478;28;20032;-66
2022/07/18 08:09:23;;;;;;;5.28;2.40;;;;;;;;;;5071967;28;20558;-66
2022/07/18 08:11:50;;;;;;;4.13;2.40;;;;;;;;;;5072803;28;20082;-66
2022/07/18 08:14:16;;;;;;;4.63;2.10;;;;;;;;;;5070891;28;20021;-66
2022/07/18 08:16:42;;;;;;;4.75;2.70;;;;;;;;;;5071339;28;20063;-66
2022/07/18 08:19:08;;;;;;;7.95;2.10;;;;;;;;;;5071183;28;20028;-66
2022/07/18 08:21:34;;;;;;;4.85;2.47;;;;;;;;;;5071215;28;20021;-66
2022/07/18 08:24:01;;;;;;;6.20;2.85;;;;;;;;;;5070634;28;20032;-66
2022/07/18 08:26:27;;;;;;;11.52;2.95;;;;;;;;;;5069307;28;20502;-66
2022/07/18 08:28:53;;;;;;;7.13;2.75;;;;;;;;;;5070837;28;20040;-66
2022/07/18 08:31:19;;;;;;;6.57;2.50;;;;;;;;;;5071059;28;20040;-66
2022/07/18 08:33:46;;;;;;;7.53;2.40;;;;;;;;;;5071430;28;20516;-66
2022/07/18 08:36:13;;;;;;;4.28;2.10;;;;;;;;;;5071787;28;20023;-66
2022/07/18 08:38:39;;;;;;;3.38;2.30;;;;;;;;;;5072721;28;20422;-66
2022/07/18 08:41:05;;;;;;;7.07;1.90;;;;;;;;;;5074809;28;20024;-66
2022/07/18 08:43:32;;;;;;;10.77;2.60;;;;;;;;;;5068514;28;20067;-66
2022/07/18 08:46:06;;;;;;;7.38;1.88;;;;;;;;;;5074963;28;20501;-66
2022/07/18 08:48:33;;;;;;;7.20;2.85;;;;;;;;;;5074282;28;20020;-66
2022/07/18 08:51:00;;;;;;;5.07;1.95;;;;;;;;;;5074911;28;20059;-66
2022/07/18 08:53:26;;;;;;;7.35;2.25;;;;;;;;;;5073846;28;20538;-66
2022/07/18 08:55:52;;;;;;;8.65;2.50;;;;;;;;;;5067102;28;20020;-66
2022/07/18 08:58:19;;;;;;;11.13;2.70;;;;;;;;;;5073520;28;20485;-66
2022/07/18 09:00:45;;;;;;;10.35;2.38;;;;;;;;;;5073887;28;20036;-67
2022/07/18 09:03:11;;;;;;;10.57;2.53;;;;;;;;;;5074565;28;20448;-66
2022/07/18 09:05:38;;;;;;;6.57;2.30;;;;;;;;;;5074155;28;20086;-66
2022/07/18 09:08:11;;;;;;;6.20;2.15;;;;;;;;;;5074540;28;20059;-66
2022/07/18 09:10:52;;;;;;;8.13;2.35;;;;;;;;;;5068784;28;20028;-67
2022/07/18 09:13:19;;;;;;;6.25;2.47;;;;;;;;;;5074239;28;20469;-67
2022/07/18 09:15:59;;;;;;;3.60;2.05;;;;;;;;;;5074233;28;20027;-66
2022/07/18 09:18:28;;;;;;;4.03;1.95;;;;;;;;;;5065632;28;20029;-66
2022/07/18 09:20:58;;;;;;;6.28;2.40;;;;;;;;;;5074850;28;20028;-66
2022/07/18 09:23:28;;;;;;;8.50;2.03;;;;;;;;;;5074390;28;20032;-66
2022/07/18 09:25:54;;;;;;;5.40;2.42;;;;;;;;;;5074321;28;20375;-66
2022/07/18 09:28:20;;;;;;;3.28;1.77;;;;;;;;;;5073960;28;20075;-66
2022/07/18 09:30:46;;;;;;;5.78;1.80;;;;;;;;;;5073922;28;20386;-66
2022/07/18 09:33:12;;;;;;;9.27;2.28;;;;;;;;;;5074514;28;20020;-66
2022/07/18 09:35:46;;;;;;;2.40;1.70;;;;;;;;;;5073493;28;20370;-67
2022/07/18 09:38:17;;;;;;;5.55;2.15;;;;;;;;;;5073781;28;20024;-67
2022/07/18 09:40:48;;;;;;;6.03;2.20;;;;;;;;;;5073797;28;20106;-67
2022/07/18 09:43:17;;;;;;;3.78;1.77;;;;;;;;;;5073568;28;20367;-66
2022/07/18 09:45:46;;;;;;;3.95;1.90;;;;;;;;;;5071872;28;20147;-66
2022/07/18 09:48:13;;;;;;;3.75;2.13;;;;;;;;;;5073310;28;20108;-66
2022/07/18 09:50:40;;;;;;;6.97;2.08;;;;;;;;;;5073598;28;20036;-66
2022/07/18 09:53:14;;;;;;;2.63;1.90;;;;;;;;;;5073285;28;20024;-66
2022/07/18 09:55:45;;;;;;;4.43;2.00;;;;;;;;;;5073318;28;20132;-67
2022/07/18 09:58:11;;;;;;;3.97;2.10;;;;;;;;;;5073619;28;20060;-67
2022/07/18 10:00:38;;;;;;;4.10;1.65;;;;;;;;;;5073463;28;20017;-66
2022/07/18 10:03:05;;;;;;;4.63;2.00;;;;;;;;;;5072873;28;20024;-66
2022/07/18 10:05:33;;;;;;;3.25;1.98;;;;;;;;;;5073398;28;20413;-66
2022/07/18 10:08:03;;;;;;;11.07;2.28;;;;;;;;;;5073043;28;20103;-66
2022/07/18 10:10:30;;;;;;;6.72;1.80;;;;;;;;;;5070257;28;20021;-66
2022/07/18 10:12:57;;;;;;;5.22;1.58;;;;;;;;;;5073461;28;20025;-66
2022/07/18 10:15:25;;;;;;;7.97;2.22;;;;;;;;;;5073545;28;20059;-66
2022/07/18 10:17:51;;;;;;;4.20;1.90;;;;;;;;;;5072549;28;20039;-66
2022/07/18 10:20:18;;;;;;;2.75;1.85;;;;;;;;;;5073295;28;20078;-66
2022/07/18 10:22:45;;;;;;;4.05;1.75;;;;;;;;;;5072560;28;20095;-66
2022/07/18 10:25:13;;;;;;;7.80;2.15;;;;;;;;;;5066976;28;20017;-66
2022/07/18 10:27:49;;;;;;;3.45;2.15;;;;;;;;;;5072613;28;20055;-66
2022/07/18 10:30:15;;;;;;;5.00;1.75;;;;;;;;;;5067786;28;20040;-66
2022/07/18 10:32:43;;;;;;;3.70;2.00;;;;;;;;;;5072165;28;20063;-72
2022/07/18 10:35:12;;;;;;;4.85;1.73;;;;;;;;;;5070290;28;20446;-68
2022/07/18 10:37:39;;;;;;;4.45;1.70;;;;;;;;;;5065167;28;20024;-67
2022/07/18 10:40:28;;;;;;;2.78;1.70;;;;;;;;;;5071578;28;20467;-67
2022/07/18 10:43:12;;;;;;;4.65;1.50;;;;;;;;;;5069388;28;20575;-66
2022/07/18 10:45:45;;;;;;;5.97;1.92;;;;;;;;;;5072012;28;20119;-67
2022/07/18 10:48:29;;;;;;;3.17;1.80;;;;;;;;;;5071746;28;20028;-66
2022/07/18 10:51:07;;;;;;;4.82;1.70;;;;;;;;;;5071576;28;20123;-67
2022/07/18 10:54:03;;;;;;;5.32;1.70;;;;;;;;;;5071695;28;20086;-66
2022/07/18 10:56:29;;;;;;;3.45;1.58;;;;;;;;;;5061756;28;20052;-66
2022/07/18 10:58:56;;;;;;;8.52;1.98;;;;;;;;;;5070928;28;20610;-66
2022/07/18 11:01:23;;;;;;;3.83;1.70;;;;;;;;;;5072356;28;20036;-66
2022/07/18 11:03:49;;;;;;;4.50;1.30;;;;;;;;;;5072171;28;20028;-66
2022/07/18 11:06:16;;;;;;;9.27;1.77;;;;;;;;;;5072282;28;20012;-67
2022/07/18 11:08:42;;;;;;;4.22;2.00;;;;;;;;;;5071406;28;20028;-66
2022/07/18 11:11:10;;;;;;;2.47;1.52;;;;;;;;;;5072288;28;20024;-67
2022/07/18 11:13:38;;;;;;;4.07;1.98;;;;;;;;;;5072098;28;20020;-66
2022/07/18 11:16:14;;;;;;;3.20;1.58;;;;;;;;;;5072155;28;20021;-67
2022/07/18 11:18:40;;;;;;;5.68;1.73;;;;;;;;;;5071808;28;20040;-67
2022/07/18 11:21:22;;;;;;;8.80;1.98;;;;;;;;;;5071679;28;20025;-66
2022/07/18 11:23:49;;;;;;;2.17;1.88;;;;;;;;;;5071053;28;20021;-67
2022/07/18 11:26:16;;;;;;;3.05;1.40;;;;;;;;;;5071096;28;20505;-67
2022/07/18 11:28:42;;;;;;;5.22;1.60;;;;;;;;;;5070791;28;20402;-67
2022/07/18 11:31:09;;;;;;;7.32;1.65;;;;;;;;;;5070731;28;20457;-68
2022/07/18 11:33:41;;;;;;;3.28;1.95;;;;;;;;;;5071400;28;20025;-68
2022/07/18 11:36:08;;;;;;;4.57;1.63;;;;;;;;;;5071202;28;20020;-68
2022/07/18 11:38:35;;;;;;;1.85;1.50;;;;;;;;;;5070974;28;20556;-68
2022/07/18 11:41:02;;;;;;;3.53;1.50;;;;;;;;;;5071358;28;20024;-68
2022/07/18 11:43:28;;;;;;;5.63;1.70;;;;;;;;;;5066012;28;20558;-68
2022/07/18 11:46:04;;;;;;;3.03;1.50;;;;;;;;;;5070934;28;20102;-68
2022/07/18 11:48:31;;;;;;;3.72;1.30;;;;;;;;;;5070956;28;20036;-68
2022/07/18 11:50:57;;;;;;;4.43;1.70;;;;;;;;;;5070762;28;20555;-68
2022/07/18 11:53:24;;;;;;;2.53;1.58;;;;;;;;;;5070079;28;20032;-68
2022/07/18 11:55:50;;;;;;;3.33;1.60;;;;;;;;;;5070935;28;20035;-68
2022/07/18 11:58:17;;;;;;;10.65;1.50;;;;;;;;;;5070587;28;20048;-68
2022/07/18 12:00:43;;;;;;;5.28;1.55;;;;;;;;;;5071274;28;20035;-68
2022/07/18 12:03:17;;;;;;;3.22;1.40;;;;;;;;;;5070503;28;20028;-68
2022/07/18 12:05:48;;;;;;;3.45;1.48;;;;;;;;;;5070674;28;20029;-68
2022/07/18 12:08:27;;;;;;;8.97;2.00;;;;;;;;;;5070464;28;20028;-68
2022/07/18 12:11:22;;;;;;;8.32;2.15;;;;;;;;;;5070591;28;20621;-68
2022/07/18 12:13:50;;;;;;;7.47;1.40;;;;;;;;;;5052918;28;20094;-67
2022/07/18 12:16:29;;;;;;;3.45;1.67;;;;;;;;;;5071000;28;20526;-67
2022/07/18 12:18:57;;;;;;;7.70;2.00;;;;;;;;;;5069957;28;20486;-67
2022/07/18 12:21:23;;;;;;;3.15;1.88;;;;;;;;;;5070389;28;20505;-67
2022/07/18 12:23:49;;;;;;;6.78;2.15;;;;;;;;;;5070877;28;20040;-67
2022/07/18 12:26:31;;;;;;;9.38;1.80;;;;;;;;;;5086123;28;20029;-67
2022/07/18 12:28:57;;;;;;;;;;;;;;;;;;5070970;28;20041;-67
2022/07/18 12:31:37;;;;;;;3.55;1.63;;;;;;;;;;5070160;28;19923;-68
2022/07/18 12:34:10;;;;;;;4.18;1.42;;;;;;;;;;5070490;28;20035;-71
2022/07/18 12:36:36;;;;;;;;;;;;;;;;;;5070714;28;20016;-71
2022/07/18 12:39:02;;;;;;;11.27;2.63;;;;;;;;;;5070714;28;20284;-68
2022/07/18 12:41:29;;;;;;;9.80;2.38;;;;;;;;;;5070336;28;20027;-67
2022/07/18 12:43:56;;;;;;;4.25;1.52;;;;;;;;;;5070736;28;20026;-68
2022/07/18 12:46:22;;;;;;;5.25;1.80;;;;;;;;;;5070059;28;20059;-67
2022/07/18 12:48:48;;;;;;;5.35;1.90;;;;;;;;;;5070102;28;20106;-68
2022/07/18 12:51:14;;;;;;;7.45;2.17;;;;;;;;;;5069648;28;20386;-68
2022/07/18 12:53:42;;;;;;;8.50;1.90;;;;;;;;;;5070353;28;20111;-68
2022/07/18 12:56:08;;;;;;;7.30;2.05;;;;;;;;;;5070368;28;20031;-68
2022/07/18 12:58:34;;;;;;;5.95;2.08;;;;;;;;;;5069912;28;20020;-68
2022/07/18 13:01:00;;;;;;;6.13;2.67;;;;;;;;;;5070509;28;20052;-68
2022/07/18 13:03:27;;;;;;;7.43;2.13;;;;;;;;;;5069702;28;20032;-68
2022/07/18 13:05:53;;;;;;;6.22;2.17;;;;;;;;;;5069892;28;20025;-68
2022/07/18 13:08:19;;;;;;;10.27;2.10;;;;;;;;;;5069679;28;20036;-67
2022/07/18 13:10:46;;;;;;;6.78;2.83;;;;;;;;;;5070183;28;20378;-68
2022/07/18 13:13:12;;;;;;;3.30;1.90;;;;;;;;;;5069828;28;20035;-67
2022/07/18 13:15:38;;;;;;;5.78;2.25;;;;;;;;;;5069758;28;20032;-67
2022/07/18 13:18:05;;;;;;;4.35;2.40;;;;;;;;;;5069897;28;20027;-67
2022/07/18 13:20:31;;;;;;;9.00;2.25;;;;;;;;;;5069273;28;20037;-67
2022/07/18 13:23:01;;;;;;;8.15;2.38;;;;;;;;;;5073280;28;20032;-67
2022/07/18 13:25:27;;;;;;;7.32;2.95;;;;;;;;;;5073347;28;20036;-67
2022/07/18 13:27:53;;;;;;;7.43;2.33;;;;;;;;;;5073235;28;20414;-67
2022/07/18 13:30:20;;;;;;;9.95;2.72;;;;;;;;;;5073219;28;20036;-67
2022/07/18 13:32:46;;;;;;;9.68;2.60;;;;;;;;;;5073882;28;20032;-68
2022/07/18 13:35:12;;;;;;;4.93;2.25;;;;;;;;;;5074499;28;20028;-68
2022/07/18 13:37:39;;;;;;;7.82;3.00;;;;;;;;;;5074811;28;20044;-67
2022/07/18 13:40:06;;;;;;;7.30;2.50;;;;;;;;;;5074866;28;20094;-67
2022/07/18 13:42:32;;;;;;;6.43;2.30;;;;;;;;;;5073748;28;20678;-66
2022/07/18 13:44:58;;;;;;;5.13;2.45;;;;;;;;;;5073898;28;20024;-68
2022/07/18 13:47:24;;;;;;;8.10;2.60;;;;;;;;;;5074993;28;20032;-68
2022/07/18 13:49:51;;;;;;;9.98;2.70;;;;;;;;;;5066207;28;20420;-68
2022/07/18 13:52:17;;;;;;;8.80;2.88;;;;;;;;;;5073322;28;20025;-68
2022/07/18 13:54:43;;;;;;;6.05;2.45;;;;;;;;;;5079751;28;20482;-68
2022/07/18 13:57:09;;;;;;;11.90;3.38;;;;;;;;;;5073270;28;20070;-68
2022/07/18 13:59:36;;;;;;;6.18;2.90;;;;;;;;;;5073139;28;20050;-68
2022/07/18 14:02:02;;;;;;;11.50;3.20;;;;;;;;;;5072002;28;20029;-68
2022/07/18 14:04:28;;;;;;;14.82;3.40;;;;;;;;;;5072596;28;20428;-68
2022/07/18 14:06:54;;;;;;;11.63;2.90;;;;;;;;;;5073063;28;20029;-68
2022/07/18 14:09:20;;;;;;;5.82;3.03;;;;;;;;;;5072801;28;20020;-68
2022/07/18 14:11:46;;;;;;;16.40;3.35;;;;;;;;;;5088343;28;20351;-68
2022/07/18 14:14:12;;;;;;;14.57;3.85;;;;;;;;;;5073305;28;20543;-68
2022/07/18 14:16:38;;;;;;;9.80;3.45;;;;;;;;;;5073320;28;20072;-68
2022/07/18 14:19:05;;;;;;;9.50;3.50;;;;;;;;;;5072334;28;20039;-68
2022/07/18 14:21:31;;;;;;;11.30;3.75;;;;;;;;;;5072614;28;20025;-67
2022/07/18 14:23:58;;;;;;;12.00;4.18;;;;;;;;;;5069027;28;20021;-68
2022/07/18 14:26:25;;;;;;;10.40;3.40;;;;;;;;;;5073116;28;20026;-67
2022/07/18 14:28:52;;;;;;;6.22;3.00;;;;;;;;;;5073263;28;20406;-68
2022/07/18 14:31:18;;;;;;;13.07;3.40;;;;;;;;;;5072522;28;20448;-67
2022/07/18 14:33:44;;;;;;;16.20;4.10;;;;;;;;;;5072279;28;20036;-68
2022/07/18 14:36:10;;;;;;;10.65;3.70;;;;;;;;;;5071601;28;20426;-68
2022/07/18 14:38:36;;;;;;;8.63;3.20;;;;;;;;;;5072140;28;20468;-68
2022/07/18 14:41:02;;;;;;;7.75;3.30;;;;;;;;;;5072717;28;20024;-68
2022/07/18 14:43:28;;;;;;;18.17;3.75;;;;;;;;;;5072562;28;20067;-68
2022/07/18 14:45:56;;;;;;;8.32;3.55;;;;;;;;;;5072059;28;20032;-68